AXY735 SBPJ-SBGO
Flight info
| Callsign | AXY735 |
|---|---|
| Flight time | 0h 58m |
| Altitude | 43000 |
| Route | EGDOD DCT TOLAT |
| Aircraft | C750/M-SBDE3FGHRWXY/S |
Departure
| Time | 2026-05-04 12:33 |
|---|---|
| Airport | Brigadeiro Lysias Rodrigues Airport (SBPJ) |
Arrival
| Time | 2026-05-04 13:31 |
|---|---|
| Airport | Santa Genoveva International Airport (SBGO) |
| Time | Latitude | Longitude | Altitude | Speed | Heading |
|---|---|---|---|---|---|
| 2026-05-04 12:20 | -10.29397 | -48.35770 | 751 ft | 0 kts | 212° |
| 2026-05-04 12:27 | -10.29398 | -48.35772 | 751 ft | 2 kts | 224° |
| 2026-05-04 12:28 | -10.29395 | -48.35784 | 751 ft | 4 kts | 323° |
| 2026-05-04 12:28 | -10.29354 | -48.35818 | 752 ft | 9 kts | 316° |
| 2026-05-04 12:28 | -10.29310 | -48.35807 | 750 ft | 6 kts | 32° |
| 2026-05-04 12:28 | -10.29274 | -48.35784 | 749 ft | 6 kts | 32° |
| 2026-05-04 12:29 | -10.29239 | -48.35761 | 751 ft | 7 kts | 34° |
| 2026-05-04 12:29 | -10.29184 | -48.35727 | 749 ft | 11 kts | 16° |
| 2026-05-04 12:29 | -10.29117 | -48.35765 | 748 ft | 12 kts | 306° |
| 2026-05-04 12:29 | -10.29067 | -48.35837 | 747 ft | 13 kts | 304° |
| 2026-05-04 12:30 | -10.29016 | -48.35915 | 744 ft | 14 kts | 303° |
| 2026-05-04 12:30 | -10.28961 | -48.35999 | 742 ft | 15 kts | 303° |
| 2026-05-04 12:30 | -10.28903 | -48.36087 | 741 ft | 15 kts | 303° |
| 2026-05-04 12:30 | -10.28847 | -48.36173 | 740 ft | 15 kts | 303° |
| 2026-05-04 12:31 | -10.28789 | -48.36261 | 738 ft | 15 kts | 303° |
| 2026-05-04 12:31 | -10.28729 | -48.36353 | 736 ft | 16 kts | 303° |
| 2026-05-04 12:31 | -10.28667 | -48.36446 | 735 ft | 16 kts | 304° |
| 2026-05-04 12:31 | -10.28604 | -48.36542 | 732 ft | 17 kts | 303° |
| 2026-05-04 12:32 | -10.28585 | -48.36646 | 729 ft | 14 kts | 309° |
| 2026-05-04 12:32 | -10.28587 | -48.36561 | 731 ft | 6 kts | 124° |
| 2026-05-04 12:32 | -10.28645 | -48.36474 | 734 ft | 50 kts | 123° |
| 2026-05-04 12:33 | -10.29056 | -48.35846 | 774 ft | 143 kts | 123° |
| 2026-05-04 12:33 | -10.29592 | -48.35009 | 1417 ft | 150 kts | 122° |
| 2026-05-04 12:33 | -10.30226 | -48.34053 | 1867 ft | 177 kts | 123° |
| 2026-05-04 12:33 | -10.30968 | -48.32938 | 2326 ft | 204 kts | 121° |
| 2026-05-04 12:34 | -10.31786 | -48.31693 | 2952 ft | 213 kts | 120° |
| 2026-05-04 12:34 | -10.32610 | -48.30442 | 3798 ft | 218 kts | 120° |
| 2026-05-04 12:34 | -10.33494 | -48.29085 | 4239 ft | 243 kts | 120° |
| 2026-05-04 12:34 | -10.34474 | -48.27596 | 4699 ft | 260 kts | 121° |
| 2026-05-04 12:35 | -10.35806 | -48.26323 | 5474 ft | 271 kts | 145° |
| 2026-05-04 12:35 | -10.37588 | -48.25680 | 6580 ft | 277 kts | 168° |
| 2026-05-04 12:35 | -10.39527 | -48.25608 | 7584 ft | 280 kts | 177° |
| 2026-05-04 12:35 | -10.41489 | -48.25582 | 8690 ft | 283 kts | 177° |
| 2026-05-04 12:36 | -10.43450 | -48.25537 | 9774 ft | 287 kts | 176° |
| 2026-05-04 12:36 | -10.45465 | -48.25491 | 10537 ft | 298 kts | 176° |
| 2026-05-04 12:36 | -10.47634 | -48.25444 | 10804 ft | 325 kts | 177° |
| 2026-05-04 12:36 | -10.49993 | -48.25396 | 10950 ft | 353 kts | 177° |
| 2026-05-04 12:37 | -10.52483 | -48.25467 | 11518 ft | 361 kts | 185° |
| 2026-05-04 12:37 | -10.54981 | -48.25851 | 12243 ft | 367 kts | 187° |
| 2026-05-04 12:37 | -10.57535 | -48.26265 | 12925 ft | 374 kts | 187° |
| 2026-05-04 12:37 | -10.60130 | -48.26653 | 13606 ft | 380 kts | 186° |
| 2026-05-04 12:38 | -10.62766 | -48.27037 | 14218 ft | 386 kts | 186° |
| 2026-05-04 12:38 | -10.65437 | -48.27441 | 14885 ft | 389 kts | 186° |
| 2026-05-04 12:38 | -10.68128 | -48.27856 | 15558 ft | 392 kts | 186° |
| 2026-05-04 12:38 | -10.70842 | -48.28267 | 16241 ft | 396 kts | 186° |
| 2026-05-04 12:39 | -10.73579 | -48.28677 | 16956 ft | 399 kts | 186° |
| 2026-05-04 12:39 | -10.76333 | -48.29094 | 17691 ft | 402 kts | 186° |
| 2026-05-04 12:39 | -10.79116 | -48.29516 | 18418 ft | 406 kts | 186° |
| 2026-05-04 12:39 | -10.81879 | -48.29935 | 19059 ft | 409 kts | 186° |
| 2026-05-04 12:40 | -10.84705 | -48.30362 | 19741 ft | 412 kts | 186° |
| 2026-05-04 12:40 | -10.87549 | -48.30793 | 20431 ft | 416 kts | 186° |
| 2026-05-04 12:40 | -10.90425 | -48.31228 | 21116 ft | 420 kts | 187° |
| 2026-05-04 12:40 | -10.93330 | -48.31669 | 21807 ft | 423 kts | 187° |
| 2026-05-04 12:41 | -10.96260 | -48.32087 | 22458 ft | 427 kts | 184° |
| 2026-05-04 12:41 | -10.99238 | -48.32273 | 23088 ft | 430 kts | 181° |
| 2026-05-04 12:41 | -11.02238 | -48.32424 | 23756 ft | 434 kts | 182° |
| 2026-05-04 12:41 | -11.05268 | -48.32600 | 24355 ft | 436 kts | 182° |
| 2026-05-04 12:42 | -11.08308 | -48.32793 | 24972 ft | 438 kts | 182° |
| 2026-05-04 12:42 | -11.11364 | -48.32974 | 25593 ft | 441 kts | 182° |
| 2026-05-04 12:42 | -11.14431 | -48.33146 | 26197 ft | 443 kts | 182° |
| 2026-05-04 12:42 | -11.17523 | -48.33324 | 26812 ft | 446 kts | 183° |
| 2026-05-04 12:43 | -11.20641 | -48.33510 | 27381 ft | 450 kts | 183° |
| 2026-05-04 12:43 | -11.23734 | -48.33694 | 27962 ft | 453 kts | 183° |
| 2026-05-04 12:43 | -11.26888 | -48.33877 | 28551 ft | 456 kts | 183° |
| 2026-05-04 12:43 | -11.30062 | -48.34061 | 29152 ft | 458 kts | 183° |
| 2026-05-04 12:44 | -11.33256 | -48.34249 | 29720 ft | 461 kts | 183° |
| 2026-05-04 12:44 | -11.36469 | -48.34438 | 30231 ft | 464 kts | 183° |
| 2026-05-04 12:44 | -11.39698 | -48.34627 | 30685 ft | 466 kts | 183° |
| 2026-05-04 12:44 | -11.42957 | -48.34818 | 31174 ft | 467 kts | 184° |
| 2026-05-04 12:45 | -11.46191 | -48.35008 | 31868 ft | 463 kts | 184° |
| 2026-05-04 12:45 | -11.49391 | -48.35195 | 32543 ft | 460 kts | 184° |
| 2026-05-04 12:45 | -11.52576 | -48.35382 | 33193 ft | 457 kts | 184° |
| 2026-05-04 12:45 | -11.55743 | -48.35568 | 33852 ft | 454 kts | 184° |
| 2026-05-04 12:46 | -11.58855 | -48.35751 | 34440 ft | 452 kts | 184° |
| 2026-05-04 12:46 | -11.61995 | -48.35935 | 34949 ft | 452 kts | 184° |
| 2026-05-04 12:46 | -11.65140 | -48.36120 | 35447 ft | 452 kts | 184° |
| 2026-05-04 12:46 | -11.68288 | -48.36305 | 35954 ft | 452 kts | 184° |
| 2026-05-04 12:47 | -11.71423 | -48.36489 | 36462 ft | 452 kts | 184° |
| 2026-05-04 12:47 | -11.74558 | -48.36673 | 36989 ft | 451 kts | 185° |
| 2026-05-04 12:47 | -11.77689 | -48.36857 | 37515 ft | 451 kts | 185° |
| 2026-05-04 12:47 | -11.80828 | -48.37042 | 38048 ft | 451 kts | 185° |
| 2026-05-04 12:48 | -11.83971 | -48.37226 | 38602 ft | 451 kts | 185° |
| 2026-05-04 12:48 | -11.87066 | -48.37408 | 39097 ft | 450 kts | 185° |
| 2026-05-04 12:48 | -11.90193 | -48.37592 | 39594 ft | 450 kts | 185° |
| 2026-05-04 12:48 | -11.93315 | -48.37776 | 40105 ft | 449 kts | 185° |
| 2026-05-04 12:49 | -11.96429 | -48.37959 | 40619 ft | 448 kts | 185° |
| 2026-05-04 12:49 | -11.99530 | -48.38142 | 41124 ft | 447 kts | 185° |
| 2026-05-04 12:49 | -12.02636 | -48.38325 | 41606 ft | 446 kts | 185° |
| 2026-05-04 12:49 | -12.05737 | -48.38507 | 42099 ft | 445 kts | 185° |
| 2026-05-04 12:50 | -12.07795 | -48.38628 | 42415 ft | 445 kts | 185° |
| 2026-05-04 12:50 | -12.10877 | -48.38810 | 42861 ft | 443 kts | 185° |
| 2026-05-04 12:50 | -12.13965 | -48.38992 | 43033 ft | 448 kts | 185° |
| 2026-05-04 12:51 | -12.20318 | -48.39369 | 43047 ft | 465 kts | 185° |
| 2026-05-04 12:51 | -12.26894 | -48.39755 | 43060 ft | 481 kts | 185° |
| 2026-05-04 12:52 | -12.33655 | -48.40155 | 43052 ft | 492 kts | 185° |
| 2026-05-04 12:52 | -12.40528 | -48.40557 | 43054 ft | 496 kts | 185° |
| 2026-05-04 12:53 | -12.47430 | -48.40967 | 43058 ft | 496 kts | 185° |
| 2026-05-04 12:53 | -12.54328 | -48.41373 | 43053 ft | 496 kts | 185° |
| 2026-05-04 12:54 | -12.61219 | -48.41782 | 43052 ft | 496 kts | 185° |
| 2026-05-04 12:54 | -12.68070 | -48.42186 | 43058 ft | 496 kts | 185° |
| 2026-05-04 12:55 | -12.74975 | -48.42596 | 43061 ft | 496 kts | 185° |
| 2026-05-04 12:55 | -12.81874 | -48.43004 | 43055 ft | 496 kts | 185° |
| 2026-05-04 12:56 | -12.88770 | -48.43413 | 43060 ft | 496 kts | 185° |
| 2026-05-04 12:56 | -12.95658 | -48.43820 | 43060 ft | 495 kts | 186° |
| 2026-05-04 12:57 | -13.02542 | -48.44230 | 43061 ft | 495 kts | 186° |
| 2026-05-04 12:57 | -13.09377 | -48.44636 | 43060 ft | 495 kts | 186° |
| 2026-05-04 12:58 | -13.16266 | -48.45044 | 43066 ft | 495 kts | 186° |
| 2026-05-04 12:58 | -13.23158 | -48.45454 | 43068 ft | 494 kts | 186° |
| 2026-05-04 12:59 | -13.29994 | -48.45861 | 43068 ft | 494 kts | 186° |
| 2026-05-04 12:59 | -13.36867 | -48.46270 | 43076 ft | 494 kts | 186° |
| 2026-05-04 13:00 | -13.43736 | -48.46679 | 43074 ft | 494 kts | 186° |
| 2026-05-04 13:00 | -13.50600 | -48.47087 | 43078 ft | 494 kts | 186° |
| 2026-05-04 13:01 | -13.57470 | -48.47497 | 43077 ft | 494 kts | 186° |
| 2026-05-04 13:01 | -13.64330 | -48.47906 | 43085 ft | 494 kts | 186° |
| 2026-05-04 13:02 | -13.71195 | -48.48315 | 43083 ft | 494 kts | 186° |
| 2026-05-04 13:02 | -13.78011 | -48.48723 | 43080 ft | 494 kts | 186° |
| 2026-05-04 13:03 | -13.84888 | -48.49133 | 43080 ft | 494 kts | 186° |
| 2026-05-04 13:03 | -13.91752 | -48.49544 | 43084 ft | 494 kts | 186° |
| 2026-05-04 13:04 | -13.98618 | -48.49954 | 43083 ft | 494 kts | 186° |
| 2026-05-04 13:04 | -14.05487 | -48.50365 | 43082 ft | 494 kts | 186° |
| 2026-05-04 13:05 | -14.12350 | -48.50776 | 43079 ft | 494 kts | 186° |
| 2026-05-04 13:05 | -14.19215 | -48.51181 | 43084 ft | 494 kts | 186° |
| 2026-05-04 13:06 | -14.26049 | -48.51511 | 43079 ft | 494 kts | 186° |
| 2026-05-04 13:06 | -14.32914 | -48.51879 | 43076 ft | 494 kts | 186° |
| 2026-05-04 13:07 | -14.39779 | -48.52227 | 43085 ft | 494 kts | 186° |
| 2026-05-04 13:07 | -14.46607 | -48.52585 | 43092 ft | 494 kts | 186° |
| 2026-05-04 13:08 | -14.53486 | -48.52940 | 43085 ft | 494 kts | 186° |
| 2026-05-04 13:08 | -14.60358 | -48.53298 | 43095 ft | 494 kts | 186° |
| 2026-05-04 13:09 | -14.67229 | -48.53654 | 43088 ft | 494 kts | 186° |
| 2026-05-04 13:09 | -14.74106 | -48.54011 | 43093 ft | 494 kts | 186° |
| 2026-05-04 13:10 | -14.80977 | -48.54369 | 43097 ft | 494 kts | 186° |
| 2026-05-04 13:10 | -14.87817 | -48.54724 | 43102 ft | 494 kts | 187° |
| 2026-05-04 13:11 | -14.94688 | -48.55082 | 43103 ft | 494 kts | 187° |
| 2026-05-04 13:11 | -14.98086 | -48.55257 | 42629 ft | 482 kts | 187° |
| 2026-05-04 13:11 | -15.01389 | -48.55427 | 41993 ft | 468 kts | 187° |
| 2026-05-04 13:11 | -15.04600 | -48.55596 | 41367 ft | 456 kts | 187° |
| 2026-05-04 13:12 | -15.07736 | -48.55761 | 40762 ft | 445 kts | 187° |
| 2026-05-04 13:12 | -15.10811 | -48.55922 | 40165 ft | 439 kts | 187° |
| 2026-05-04 13:12 | -15.13851 | -48.56080 | 39567 ft | 437 kts | 188° |
| 2026-05-04 13:12 | -15.16886 | -48.56240 | 38974 ft | 438 kts | 188° |
| 2026-05-04 13:13 | -15.19954 | -48.56402 | 38327 ft | 442 kts | 188° |
| 2026-05-04 13:13 | -15.23029 | -48.56561 | 37723 ft | 444 kts | 187° |
| 2026-05-04 13:13 | -15.26122 | -48.56722 | 37110 ft | 445 kts | 187° |
| 2026-05-04 13:13 | -15.29212 | -48.56883 | 36502 ft | 446 kts | 187° |
| 2026-05-04 13:14 | -15.32312 | -48.57045 | 35899 ft | 445 kts | 187° |
| 2026-05-04 13:14 | -15.35408 | -48.57206 | 35282 ft | 445 kts | 187° |
| 2026-05-04 13:14 | -15.38464 | -48.57365 | 34681 ft | 445 kts | 187° |
| 2026-05-04 13:14 | -15.41544 | -48.57530 | 34083 ft | 442 kts | 187° |
| 2026-05-04 13:15 | -15.44609 | -48.57769 | 33446 ft | 441 kts | 192° |
| 2026-05-04 13:15 | -15.47561 | -48.58620 | 32851 ft | 442 kts | 204° |
| 2026-05-04 13:15 | -15.50279 | -48.60127 | 32247 ft | 445 kts | 216° |
| 2026-05-04 13:15 | -15.52720 | -48.62124 | 31653 ft | 449 kts | 220° |
| 2026-05-04 13:16 | -15.55145 | -48.64208 | 31042 ft | 455 kts | 220° |
| 2026-05-04 13:16 | -15.57606 | -48.66316 | 30411 ft | 460 kts | 220° |
| 2026-05-04 13:16 | -15.60071 | -48.68412 | 29738 ft | 457 kts | 220° |
| 2026-05-04 13:16 | -15.62524 | -48.70500 | 29114 ft | 453 kts | 220° |
| 2026-05-04 13:17 | -15.64942 | -48.72568 | 28492 ft | 448 kts | 220° |
| 2026-05-04 13:17 | -15.67338 | -48.74619 | 27882 ft | 444 kts | 220° |
| 2026-05-04 13:17 | -15.69713 | -48.76647 | 27281 ft | 441 kts | 220° |
| 2026-05-04 13:17 | -15.72062 | -48.78652 | 26685 ft | 435 kts | 220° |
| 2026-05-04 13:18 | -15.74352 | -48.80612 | 26101 ft | 431 kts | 220° |
| 2026-05-04 13:18 | -15.76658 | -48.82586 | 25515 ft | 429 kts | 219° |
| 2026-05-04 13:18 | -15.78963 | -48.84558 | 24926 ft | 426 kts | 219° |
| 2026-05-04 13:18 | -15.81235 | -48.86501 | 24351 ft | 419 kts | 219° |
| 2026-05-04 13:19 | -15.83490 | -48.88431 | 23779 ft | 420 kts | 219° |
| 2026-05-04 13:19 | -15.85741 | -48.90358 | 23158 ft | 419 kts | 219° |
| 2026-05-04 13:19 | -15.87971 | -48.92269 | 22583 ft | 414 kts | 219° |
| 2026-05-04 13:19 | -15.90176 | -48.94159 | 22019 ft | 409 kts | 219° |
| 2026-05-04 13:20 | -15.92375 | -48.96043 | 21462 ft | 409 kts | 219° |
| 2026-05-04 13:20 | -15.94575 | -48.97929 | 20910 ft | 408 kts | 219° |
| 2026-05-04 13:20 | -15.96748 | -48.99793 | 20356 ft | 403 kts | 219° |
| 2026-05-04 13:20 | -15.98903 | -49.01641 | 19809 ft | 403 kts | 219° |
| 2026-05-04 13:21 | -16.01056 | -49.03489 | 19253 ft | 401 kts | 219° |
| 2026-05-04 13:21 | -16.03199 | -49.05328 | 18709 ft | 396 kts | 219° |
| 2026-05-04 13:21 | -16.05319 | -49.07149 | 18139 ft | 393 kts | 219° |
| 2026-05-04 13:21 | -16.07426 | -49.08958 | 17590 ft | 395 kts | 219° |
| 2026-05-04 13:22 | -16.09543 | -49.10775 | 17053 ft | 394 kts | 219° |
| 2026-05-04 13:22 | -16.11650 | -49.12585 | 16518 ft | 391 kts | 219° |
| 2026-05-04 13:22 | -16.13747 | -49.14386 | 15983 ft | 390 kts | 219° |
| 2026-05-04 13:22 | -16.15837 | -49.16183 | 15456 ft | 389 kts | 220° |
| 2026-05-04 13:23 | -16.17920 | -49.17973 | 15004 ft | 386 kts | 220° |
| 2026-05-04 13:23 | -16.19964 | -49.19730 | 14476 ft | 387 kts | 220° |
| 2026-05-04 13:23 | -16.22040 | -49.21515 | 13941 ft | 388 kts | 220° |
| 2026-05-04 13:23 | -16.24101 | -49.23290 | 13376 ft | 382 kts | 220° |
| 2026-05-04 13:24 | -16.26144 | -49.25049 | 12842 ft | 377 kts | 220° |
| 2026-05-04 13:24 | -16.28178 | -49.26798 | 12312 ft | 378 kts | 220° |
| 2026-05-04 13:24 | -16.30194 | -49.28534 | 11790 ft | 377 kts | 221° |
| 2026-05-04 13:25 | -16.34027 | -49.31835 | 10778 ft | 337 kts | 221° |
| 2026-05-04 13:25 | -16.35767 | -49.33334 | 10338 ft | 321 kts | 221° |
| 2026-05-04 13:25 | -16.37450 | -49.34785 | 9915 ft | 308 kts | 221° |
| 2026-05-04 13:25 | -16.39096 | -49.36205 | 9502 ft | 306 kts | 221° |
| 2026-05-04 13:26 | -16.40735 | -49.37620 | 9100 ft | 305 kts | 221° |
| 2026-05-04 13:26 | -16.42370 | -49.39029 | 8709 ft | 305 kts | 221° |
| 2026-05-04 13:26 | -16.43989 | -49.40425 | 8317 ft | 299 kts | 220° |
| 2026-05-04 13:26 | -16.45607 | -49.41817 | 7929 ft | 302 kts | 219° |
| 2026-05-04 13:27 | -16.47409 | -49.42839 | 7467 ft | 300 kts | 194° |
| 2026-05-04 13:27 | -16.49489 | -49.42950 | 7103 ft | 294 kts | 168° |
| 2026-05-04 13:27 | -16.51347 | -49.42185 | 6741 ft | 284 kts | 143° |
| 2026-05-04 13:27 | -16.52694 | -49.40779 | 6386 ft | 273 kts | 120° |
| 2026-05-04 13:28 | -16.53661 | -49.39094 | 6065 ft | 268 kts | 116° |
| 2026-05-04 13:28 | -16.54592 | -49.37420 | 5719 ft | 266 kts | 116° |
| 2026-05-04 13:28 | -16.55524 | -49.35762 | 5373 ft | 265 kts | 116° |
| 2026-05-04 13:28 | -16.56453 | -49.34116 | 5028 ft | 261 kts | 116° |
| 2026-05-04 13:29 | -16.57373 | -49.32482 | 4669 ft | 260 kts | 116° |
| 2026-05-04 13:29 | -16.58282 | -49.30859 | 4341 ft | 258 kts | 117° |
| 2026-05-04 13:29 | -16.59176 | -49.29264 | 4029 ft | 257 kts | 116° |
| 2026-05-04 13:29 | -16.60043 | -49.27733 | 3658 ft | 226 kts | 117° |
| 2026-05-04 13:30 | -16.60759 | -49.26478 | 3388 ft | 179 kts | 116° |
| 2026-05-04 13:30 | -16.61326 | -49.25465 | 3149 ft | 146 kts | 117° |
| 2026-05-04 13:30 | -16.61815 | -49.24582 | 2872 ft | 135 kts | 119° |
| 2026-05-04 13:30 | -16.62272 | -49.23767 | 2727 ft | 126 kts | 116° |
| 2026-05-04 13:31 | -16.62692 | -49.23010 | 2498 ft | 118 kts | 115° |
| 2026-05-04 13:31 | -16.63075 | -49.22309 | 2449 ft | 101 kts | 121° |
| 2026-05-04 13:31 | -16.63396 | -49.21752 | 2447 ft | 77 kts | 120° |
| 2026-05-04 13:31 | -16.63570 | -49.21443 | 2459 ft | 22 kts | 120° |
| 2026-05-04 13:32 | -16.63661 | -49.21388 | 2458 ft | 14 kts | 224° |
| 2026-05-04 13:32 | -16.63681 | -49.21446 | 2464 ft | 0 kts | 255° |
| 2026-05-04 13:32 | -16.63682 | -49.21450 | 2461 ft | 1 kts | 255° |
| 2026-05-04 13:32 | -16.63685 | -49.21462 | 2459 ft | 2 kts | 255° |
| 2026-05-04 13:33 | -16.63690 | -49.21479 | 2458 ft | 3 kts | 254° |
| 2026-05-04 13:33 | -16.63700 | -49.21517 | 2459 ft | 7 kts | 255° |
| 2026-05-04 13:33 | -16.63707 | -49.21582 | 2454 ft | 12 kts | 282° |
| 2026-05-04 13:33 | -16.63659 | -49.21675 | 2454 ft | 16 kts | 300° |
| 2026-05-04 13:34 | -16.63602 | -49.21779 | 2452 ft | 17 kts | 300° |
| 2026-05-04 13:34 | -16.63539 | -49.21889 | 2445 ft | 19 kts | 301° |
| 2026-05-04 13:34 | -16.63467 | -49.22015 | 2437 ft | 21 kts | 300° |
| 2026-05-04 13:34 | -16.63394 | -49.22145 | 2437 ft | 21 kts | 300° |
| 2026-05-04 13:35 | -16.63323 | -49.22271 | 2437 ft | 20 kts | 300° |
| 2026-05-04 13:35 | -16.63211 | -49.22510 | 2446 ft | 12 kts | 228° |
| 2026-05-04 13:35 | -16.63252 | -49.22471 | 2444 ft | 13 kts | 120° |
| 2026-05-04 13:36 | -16.63289 | -49.22405 | 2443 ft | 1 kts | 120° |
| 2026-05-04 13:36 | -16.63297 | -49.22391 | 2439 ft | 4 kts | 121° |
| 2026-05-04 13:36 | -16.63304 | -49.22379 | 2438 ft | 0 kts | 121° |
| 2026-05-04 13:39 | -16.63323 | -49.22347 | 2439 ft | 10 kts | 125° |
| 2026-05-04 13:39 | -16.63310 | -49.22302 | 2438 ft | 9 kts | 338° |
| 2026-05-04 13:39 | -16.63258 | -49.22388 | 2445 ft | 19 kts | 301° |
| 2026-05-04 13:39 | -16.63205 | -49.22487 | 2445 ft | 14 kts | 283° |
| 2026-05-04 13:40 | -16.63265 | -49.22525 | 2446 ft | 11 kts | 192° |
| 2026-05-04 13:40 | -16.63315 | -49.22494 | 2447 ft | 10 kts | 120° |
| 2026-05-04 13:40 | -16.63345 | -49.22479 | 2444 ft | 0 kts | 211° |
| 2026-05-04 13:40 | -16.63344 | -49.22479 | 2444 ft | 0 kts | 211° |